sensor_id;sensor_type;location;lat;lon;timestamp;pressure;altitude;pressure_sealevel;temperature;humidity
66547;BME280;53400;50.364;14.874;2022-07-06T00:02:03;98936.44;;;17.52;73.92
66547;BME280;53400;50.364;14.874;2022-07-06T00:04:29;98936.75;;;17.50;74.05
66547;BME280;53400;50.364;14.874;2022-07-06T00:06:55;98927.91;;;17.34;75.59
66547;BME280;53400;50.364;14.874;2022-07-06T00:09:21;98929.03;;;17.28;76.15
66547;BME280;53400;50.364;14.874;2022-07-06T00:11:47;98929.56;;;17.64;73.21
66547;BME280;53400;50.364;14.874;2022-07-06T00:14:14;98919.13;;;17.87;70.75
66547;BME280;53400;50.364;14.874;2022-07-06T00:16:40;98924.63;;;18.06;70.86
66547;BME280;53400;50.364;14.874;2022-07-06T00:19:06;98925.88;;;18.14;71.55
66547;BME280;53400;50.364;14.874;2022-07-06T00:21:32;98927.31;;;18.11;70.81
66547;BME280;53400;50.364;14.874;2022-07-06T00:23:58;98925.03;;;18.18;70.69
66547;BME280;53400;50.364;14.874;2022-07-06T00:26:24;98930.00;;;18.11;71.40
66547;BME280;53400;50.364;14.874;2022-07-06T00:28:49;98923.88;;;18.00;71.65
66547;BME280;53400;50.364;14.874;2022-07-06T00:31:16;98919.06;;;17.92;71.13
66547;BME280;53400;50.364;14.874;2022-07-06T00:33:42;98923.22;;;17.84;72.30
66547;BME280;53400;50.364;14.874;2022-07-06T00:36:08;98925.09;;;17.50;74.05
66547;BME280;53400;50.364;14.874;2022-07-06T00:38:34;98928.66;;;17.06;76.09
66547;BME280;53400;50.364;14.874;2022-07-06T00:41:00;98933.84;;;16.92;77.40
66547;BME280;53400;50.364;14.874;2022-07-06T00:43:25;98954.22;;;16.79;78.41
66547;BME280;53400;50.364;14.874;2022-07-06T00:45:51;98986.66;;;16.79;78.79
66547;BME280;53400;50.364;14.874;2022-07-06T00:48:19;99004.56;;;16.65;79.20
66547;BME280;53400;50.364;14.874;2022-07-06T00:50:44;98996.53;;;16.24;78.13
66547;BME280;53400;50.364;14.874;2022-07-06T00:53:10;98987.31;;;16.30;74.44
66547;BME280;53400;50.364;14.874;2022-07-06T00:55:37;98957.34;;;16.32;73.43
66547;BME280;53400;50.364;14.874;2022-07-06T00:58:07;98937.06;;;16.29;70.34
66547;BME280;53400;50.364;14.874;2022-07-06T01:00:34;98962.16;;;16.50;68.24
66547;BME280;53400;50.364;14.874;2022-07-06T01:03:00;98966.19;;;16.52;67.65
66547;BME280;53400;50.364;14.874;2022-07-06T01:05:29;98969.97;;;16.57;66.73
66547;BME280;53400;50.364;14.874;2022-07-06T01:07:55;98961.53;;;16.63;65.30
66547;BME280;53400;50.364;14.874;2022-07-06T01:10:22;98964.81;;;16.55;65.29
66547;BME280;53400;50.364;14.874;2022-07-06T01:12:48;98972.66;;;16.57;64.75
66547;BME280;53400;50.364;14.874;2022-07-06T01:15:16;98969.16;;;16.56;64.57
66547;BME280;53400;50.364;14.874;2022-07-06T01:17:43;98968.34;;;16.56;64.17
66547;BME280;53400;50.364;14.874;2022-07-06T01:20:11;98961.59;;;16.53;63.63
66547;BME280;53400;50.364;14.874;2022-07-06T01:22:37;98960.81;;;16.42;63.50
66547;BME280;53400;50.364;14.874;2022-07-06T01:25:04;98959.75;;;16.33;63.60
66547;BME280;53400;50.364;14.874;2022-07-06T01:27:30;98961.13;;;16.25;63.64
66547;BME280;53400;50.364;14.874;2022-07-06T01:29:56;98967.59;;;16.24;64.30
66547;BME280;53400;50.364;14.874;2022-07-06T01:32:22;98979.25;;;16.20;64.15
66547;BME280;53400;50.364;14.874;2022-07-06T01:34:47;98982.47;;;16.22;64.05
66547;BME280;53400;50.364;14.874;2022-07-06T01:37:14;98969.53;;;16.03;65.02
66547;BME280;53400;50.364;14.874;2022-07-06T01:39:41;98972.78;;;16.05;65.00
66547;BME280;53400;50.364;14.874;2022-07-06T01:42:07;98976.56;;;15.99;65.46
66547;BME280;53400;50.364;14.874;2022-07-06T01:44:32;98974.41;;;15.96;65.64
66547;BME280;53400;50.364;14.874;2022-07-06T01:46:58;98969.00;;;16.01;65.92
66547;BME280;53400;50.364;14.874;2022-07-06T01:49:24;98978.19;;;15.95;66.03
66547;BME280;53400;50.364;14.874;2022-07-06T01:51:50;98963.91;;;15.79;66.36
66547;BME280;53400;50.364;14.874;2022-07-06T01:54:17;98969.84;;;15.76;66.51
66547;BME280;53400;50.364;14.874;2022-07-06T01:56:43;98962.25;;;15.83;66.15
66547;BME280;53400;50.364;14.874;2022-07-06T01:59:08;98972.78;;;15.85;66.08
66547;BME280;53400;50.364;14.874;2022-07-06T02:01:35;98965.50;;;15.86;66.29
66547;BME280;53400;50.364;14.874;2022-07-06T02:04:01;98974.16;;;15.77;66.04
66547;BME280;53400;50.364;14.874;2022-07-06T02:06:27;98962.25;;;15.83;65.79
66547;BME280;53400;50.364;14.874;2022-07-06T02:08:52;98956.03;;;15.78;65.74
66547;BME280;53400;50.364;14.874;2022-07-06T02:11:21;98972.78;;;15.85;65.48
66547;BME280;53400;50.364;14.874;2022-07-06T02:13:46;98973.31;;;15.82;65.30
66547;BME280;53400;50.364;14.874;2022-07-06T02:16:12;98965.50;;;15.80;65.15
66547;BME280;53400;50.364;14.874;2022-07-06T02:18:39;98950.91;;;15.87;64.60
66547;BME280;53400;50.364;14.874;2022-07-06T02:21:05;98960.38;;;15.74;65.54
66547;BME280;53400;50.364;14.874;2022-07-06T02:23:31;98959.28;;;15.85;64.80
66547;BME280;53400;50.364;14.874;2022-07-06T02:25:57;98955.78;;;15.90;64.58
66547;BME280;53400;50.364;14.874;2022-07-06T02:28:24;98956.59;;;15.75;65.04
66547;BME280;53400;50.364;14.874;2022-07-06T02:30:50;98961.19;;;15.74;64.93
66547;BME280;53400;50.364;14.874;2022-07-06T02:33:15;98949.56;;;15.69;65.50
66547;BME280;53400;50.364;14.874;2022-07-06T02:35:41;98950.66;;;15.78;64.87
66547;BME280;53400;50.364;14.874;2022-07-06T02:38:10;98944.44;;;15.77;64.96
66547;BME280;53400;50.364;14.874;2022-07-06T02:40:36;98952.25;;;15.79;64.45
66547;BME280;53400;50.364;14.874;2022-07-06T02:43:02;98962.25;;;15.78;64.95
66547;BME280;53400;50.364;14.874;2022-07-06T02:45:30;98959.81;;;15.82;64.48
66547;BME280;53400;50.364;14.874;2022-07-06T02:47:56;98954.94;;;15.99;64.09
66547;BME280;53400;50.364;14.874;2022-07-06T02:50:23;98938.47;;;15.96;63.91
66547;BME280;53400;50.364;14.874;2022-07-06T02:52:49;98942.81;;;15.71;64.94
66547;BME280;53400;50.364;14.874;2022-07-06T02:55:15;98938.75;;;15.84;65.04
66547;BME280;53400;50.364;14.874;2022-07-06T02:57:40;98940.63;;;15.94;64.38
66547;BME280;53400;50.364;14.874;2022-07-06T03:00:08;98944.41;;;16.03;64.07
66547;BME280;53400;50.364;14.874;2022-07-06T03:02:36;98947.38;;;16.12;64.12
66547;BME280;53400;50.364;14.874;2022-07-06T03:05:02;98942.75;;;16.17;64.06
66547;BME280;53400;50.364;14.874;2022-07-06T03:07:29;98943.84;;;16.11;64.63
66547;BME280;53400;50.364;14.874;2022-07-06T03:09:54;98933.88;;;15.91;65.17
66547;BME280;53400;50.364;14.874;2022-07-06T03:12:20;98930.13;;;15.87;65.35
66547;BME280;53400;50.364;14.874;2022-07-06T03:14:46;98939.03;;;15.77;66.61
66547;BME280;53400;50.364;14.874;2022-07-06T03:17:12;98942.56;;;15.68;66.77
66547;BME280;53400;50.364;14.874;2022-07-06T03:19:39;98950.38;;;15.74;67.58
66547;BME280;53400;50.364;14.874;2022-07-06T03:22:05;98950.09;;;15.76;67.33
66547;BME280;53400;50.364;14.874;2022-07-06T03:24:31;98955.78;;;15.69;67.93
66547;BME280;53400;50.364;14.874;2022-07-06T03:26:57;98964.66;;;15.59;68.03
66547;BME280;53400;50.364;14.874;2022-07-06T03:29:23;98965.78;;;15.69;67.82
66547;BME280;53400;50.364;14.874;2022-07-06T03:31:48;98969.78;;;15.61;68.15
66547;BME280;53400;50.364;14.874;2022-07-06T03:34:14;98979.28;;;15.69;67.95
66547;BME280;53400;50.364;14.874;2022-07-06T03:36:42;98978.94;;;15.55;68.68
66547;BME280;53400;50.364;14.874;2022-07-06T03:39:08;98990.03;;;15.43;69.18
66547;BME280;53400;50.364;14.874;2022-07-06T03:41:33;98987.56;;;15.52;68.90
66547;BME280;53400;50.364;14.874;2022-07-06T03:43:59;98981.63;;;15.40;69.07
66547;BME280;53400;50.364;14.874;2022-07-06T03:46:25;98983.81;;;15.58;68.60
66547;BME280;53400;50.364;14.874;2022-07-06T03:48:51;98973.63;;;15.70;68.81
66547;BME280;53400;50.364;14.874;2022-07-06T03:51:17;98987.38;;;15.84;68.09
66547;BME280;53400;50.364;14.874;2022-07-06T03:53:44;98997.09;;;15.90;68.35
66547;BME280;53400;50.364;14.874;2022-07-06T03:56:10;99002.44;;;15.54;70.12
66547;BME280;53400;50.364;14.874;2022-07-06T03:58:54;98997.06;;;16.00;68.39
66547;BME280;53400;50.364;14.874;2022-07-06T04:01:20;99002.75;;;15.99;68.19
66547;BME280;53400;50.364;14.874;2022-07-06T04:03:46;98998.19;;;15.89;68.53
66547;BME280;53400;50.364;14.874;2022-07-06T04:06:12;98997.91;;;15.80;69.21
66547;BME280;53400;50.364;14.874;2022-07-06T04:08:38;99001.41;;;15.91;68.13
66547;BME280;53400;50.364;14.874;2022-07-06T04:11:05;99011.69;;;15.99;67.66
66547;BME280;53400;50.364;14.874;2022-07-06T04:13:31;99006.81;;;16.06;67.47
66547;BME280;53400;50.364;14.874;2022-07-06T04:15:57;99015.47;;;15.98;68.25
66547;BME280;53400;50.364;14.874;2022-07-06T04:18:23;99012.50;;;16.10;68.14
66547;BME280;53400;50.364;14.874;2022-07-06T04:20:49;99018.16;;;16.14;68.31
66547;BME280;53400;50.364;14.874;2022-07-06T04:23:15;99017.84;;;16.41;67.05
66547;BME280;53400;50.364;14.874;2022-07-06T04:25:40;99023.84;;;16.22;66.95
66547;BME280;53400;50.364;14.874;2022-07-06T04:28:08;99017.31;;;16.39;67.67
66547;BME280;53400;50.364;14.874;2022-07-06T04:30:34;99018.91;;;16.40;67.99
66547;BME280;53400;50.364;14.874;2022-07-06T04:33:01;99028.16;;;16.28;68.76
66547;BME280;53400;50.364;14.874;2022-07-06T04:35:27;99032.19;;;16.16;70.24
66547;BME280;53400;50.364;14.874;2022-07-06T04:37:52;99037.31;;;16.27;69.36
66547;BME280;53400;50.364;14.874;2022-07-06T04:40:18;99038.69;;;16.10;70.38
66547;BME280;53400;50.364;14.874;2022-07-06T04:42:44;99036.78;;;16.00;70.66
66547;BME280;53400;50.364;14.874;2022-07-06T04:45:12;99044.91;;;16.10;70.82
66547;BME280;53400;50.364;14.874;2022-07-06T04:47:37;99048.16;;;16.02;70.88
66547;BME280;53400;50.364;14.874;2022-07-06T04:50:05;99056.53;;;16.05;71.22
66547;BME280;53400;50.364;14.874;2022-07-06T04:52:31;99055.44;;;15.86;70.75
66547;BME280;53400;50.364;14.874;2022-07-06T04:54:57;99049.78;;;15.98;70.67
66547;BME280;53400;50.364;14.874;2022-07-06T04:57:23;99048.69;;;15.89;71.86
66547;BME280;53400;50.364;14.874;2022-07-06T04:59:51;99058.13;;;15.96;71.16
66547;BME280;53400;50.364;14.874;2022-07-06T05:02:18;99062.75;;;16.01;70.61
66547;BME280;53400;50.364;14.874;2022-07-06T05:04:44;99063.28;;;16.23;69.19
66547;BME280;53400;50.364;14.874;2022-07-06T05:07:10;99060.03;;;16.16;68.97
66547;BME280;53400;50.364;14.874;2022-07-06T05:09:36;99066.25;;;16.32;68.72
66547;BME280;53400;50.364;14.874;2022-07-06T05:12:02;99084.88;;;15.77;72.03
66547;BME280;53400;50.364;14.874;2022-07-06T05:14:28;99099.38;;;15.56;76.00
66547;BME280;53400;50.364;14.874;2022-07-06T05:16:54;99106.00;;;15.23;78.88
66547;BME280;53400;50.364;14.874;2022-07-06T05:19:21;99099.41;;;15.03;80.34
66547;BME280;53400;50.364;14.874;2022-07-06T05:21:47;99093.59;;;15.22;77.69
66547;BME280;53400;50.364;14.874;2022-07-06T05:24:12;99104.66;;;15.30;78.00
66547;BME280;53400;50.364;14.874;2022-07-06T05:26:38;99108.22;;;15.41;78.43
66547;BME280;53400;50.364;14.874;2022-07-06T05:29:04;99107.41;;;15.41;79.78
66547;BME280;53400;50.364;14.874;2022-07-06T05:31:30;99106.38;;;15.57;80.25
66547;BME280;53400;50.364;14.874;2022-07-06T05:33:56;99100.97;;;15.57;80.73
66547;BME280;53400;50.364;14.874;2022-07-06T05:36:23;99103.22;;;15.75;80.58
66547;BME280;53400;50.364;14.874;2022-07-06T05:38:49;99092.56;;;15.48;81.89
66547;BME280;53400;50.364;14.874;2022-07-06T05:41:15;99088.00;;;15.44;82.46
66547;BME280;53400;50.364;14.874;2022-07-06T05:43:41;99082.31;;;15.45;82.65
66547;BME280;53400;50.364;14.874;2022-07-06T05:46:07;99081.56;;;15.65;83.24
66547;BME280;53400;50.364;14.874;2022-07-06T05:48:33;99068.34;;;15.58;84.00
66547;BME280;53400;50.364;14.874;2022-07-06T05:51:17;99059.75;;;15.87;83.07
66547;BME280;53400;50.364;14.874;2022-07-06T05:53:44;99068.41;;;15.84;83.20
66547;BME280;53400;50.364;14.874;2022-07-06T05:56:10;99052.22;;;16.04;82.74
66547;BME280;53400;50.364;14.874;2022-07-06T05:58:36;99051.38;;;16.14;80.32
66547;BME280;53400;50.364;14.874;2022-07-06T06:01:02;99071.09;;;16.30;82.32
66547;BME280;53400;50.364;14.874;2022-07-06T06:03:28;99081.13;;;16.35;81.72
66547;BME280;53400;50.364;14.874;2022-07-06T06:05:54;99072.19;;;15.93;83.49
66547;BME280;53400;50.364;14.874;2022-07-06T06:08:20;99073.00;;;16.14;81.51
66547;BME280;53400;50.364;14.874;2022-07-06T06:10:47;99066.25;;;16.32;79.47
66547;BME280;53400;50.364;14.874;2022-07-06T06:13:14;99073.22;;;16.74;77.16
66547;BME280;53400;50.364;14.874;2022-07-06T06:15:40;99076.41;;;17.02;76.21
66547;BME280;53400;50.364;14.874;2022-07-06T06:18:05;99077.28;;;16.61;78.73
66547;BME280;53400;50.364;14.874;2022-07-06T06:20:31;99081.03;;;16.91;76.59
66547;BME280;53400;50.364;14.874;2022-07-06T06:22:58;99076.03;;;17.29;78.83
66547;BME280;53400;50.364;14.874;2022-07-06T06:25:28;99087.00;;;17.53;77.20
66547;BME280;53400;50.364;14.874;2022-07-06T06:27:56;99083.53;;;17.97;76.30
66547;BME280;53400;50.364;14.874;2022-07-06T06:30:23;99086.75;;;17.99;76.50
66547;BME280;53400;50.364;14.874;2022-07-06T06:32:48;99088.13;;;18.30;75.81
66547;BME280;53400;50.364;14.874;2022-07-06T06:35:14;99084.38;;;18.55;74.40
66547;BME280;53400;50.364;14.874;2022-07-06T06:37:41;99083.13;;;19.01;73.03
66547;BME280;53400;50.364;14.874;2022-07-06T06:40:08;99086.00;;;19.34;69.57
66547;BME280;53400;50.364;14.874;2022-07-06T06:42:35;99083.00;;;19.54;69.08
66547;BME280;53400;50.364;14.874;2022-07-06T06:45:05;99084.06;;;19.77;65.87
66547;BME280;53400;50.364;14.874;2022-07-06T06:47:31;99081.00;;;20.16;67.73
66547;BME280;53400;50.364;14.874;2022-07-06T06:49:56;99090.50;;;20.19;64.26
66547;BME280;53400;50.364;14.874;2022-07-06T06:52:22;99089.91;;;20.22;63.96
66547;BME280;53400;50.364;14.874;2022-07-06T06:54:49;99089.63;;;20.05;62.76
66547;BME280;53400;50.364;14.874;2022-07-06T06:57:14;99094.50;;;19.70;63.73
66547;BME280;53400;50.364;14.874;2022-07-06T06:59:40;99093.53;;;19.99;63.88
66547;BME280;53400;50.364;14.874;2022-07-06T07:02:08;99106.75;;;20.24;61.67
66547;BME280;53400;50.364;14.874;2022-07-06T07:04:33;99098.00;;;20.08;61.69
66547;BME280;53400;50.364;14.874;2022-07-06T07:07:00;99099.75;;;19.99;62.83
66547;BME280;53400;50.364;14.874;2022-07-06T07:09:25;99099.06;;;19.93;59.54
66547;BME280;53400;50.364;14.874;2022-07-06T07:11:51;99097.03;;;19.61;61.89
66547;BME280;53400;50.364;14.874;2022-07-06T07:14:18;99090.56;;;19.57;60.87
66547;BME280;53400;50.364;14.874;2022-07-06T07:16:43;99093.94;;;19.49;62.01
66547;BME280;53400;50.364;14.874;2022-07-06T07:19:11;99100.66;;;19.76;61.00
66547;BME280;53400;50.364;14.874;2022-07-06T07:21:37;99103.38;;;19.94;61.18
66547;BME280;53400;50.364;14.874;2022-07-06T07:24:03;99105.66;;;19.87;63.09
66547;BME280;53400;50.364;14.874;2022-07-06T07:26:29;99102.47;;;19.99;64.07
66547;BME280;53400;50.364;14.874;2022-07-06T07:28:55;99104.34;;;20.55;61.56
66547;BME280;53400;50.364;14.874;2022-07-06T07:31:20;99108.50;;;20.80;60.31
66547;BME280;53400;50.364;14.874;2022-07-06T07:33:46;99103.72;;;21.46;57.96
66547;BME280;53400;50.364;14.874;2022-07-06T07:36:14;99100.31;;;21.77;54.94
66547;BME280;53400;50.364;14.874;2022-07-06T07:38:40;99111.31;;;22.22;53.29
66547;BME280;53400;50.364;14.874;2022-07-06T07:41:06;99118.19;;;22.19;54.47
66547;BME280;53400;50.364;14.874;2022-07-06T07:43:32;99102.50;;;21.89;48.82
66547;BME280;53400;50.364;14.874;2022-07-06T07:45:58;99097.50;;;21.68;49.52
66547;BME280;53400;50.364;14.874;2022-07-06T07:48:24;99104.78;;;21.95;49.46
66547;BME280;53400;50.364;14.874;2022-07-06T07:50:50;99110.06;;;22.14;50.40
66547;BME280;53400;50.364;14.874;2022-07-06T07:53:17;99118.69;;;22.08;47.53
66547;BME280;53400;50.364;14.874;2022-07-06T07:55:43;99112.91;;;21.87;47.76
66547;BME280;53400;50.364;14.874;2022-07-06T07:58:09;99112.72;;;21.83;48.56
66547;BME280;53400;50.364;14.874;2022-07-06T08:00:35;99112.25;;;22.49;46.66
66547;BME280;53400;50.364;14.874;2022-07-06T08:03:01;99111.91;;;22.73;44.58
66547;BME280;53400;50.364;14.874;2022-07-06T08:05:27;99106.22;;;22.60;45.14
66547;BME280;53400;50.364;14.874;2022-07-06T08:07:53;99110.59;;;22.39;46.78
66547;BME280;53400;50.364;14.874;2022-07-06T08:10:20;99109.03;;;22.02;47.76
66547;BME280;53400;50.364;14.874;2022-07-06T08:12:46;99110.28;;;22.63;48.45
66547;BME280;53400;50.364;14.874;2022-07-06T08:15:12;99110.38;;;22.58;48.77
66547;BME280;53400;50.364;14.874;2022-07-06T08:17:38;99109.50;;;22.17;50.11
66547;BME280;53400;50.364;14.874;2022-07-06T08:20:06;99106.84;;;22.88;47.96
66547;BME280;53400;50.364;14.874;2022-07-06T08:22:32;99101.59;;;22.92;44.93
66547;BME280;53400;50.364;14.874;2022-07-06T08:25:00;99114.34;;;22.74;44.35
66547;BME280;53400;50.364;14.874;2022-07-06T08:27:27;99113.34;;;22.70;43.95
66547;BME280;53400;50.364;14.874;2022-07-06T08:29:53;99115.31;;;22.78;45.67
66547;BME280;53400;50.364;14.874;2022-07-06T08:32:19;99114.47;;;22.69;45.72
66547;BME280;53400;50.364;14.874;2022-07-06T08:34:45;99111.66;;;23.14;45.90
66547;BME280;53400;50.364;14.874;2022-07-06T08:37:11;99114.22;;;23.76;44.84
66547;BME280;53400;50.364;14.874;2022-07-06T08:39:37;99120.03;;;24.18;41.71
66547;BME280;53400;50.364;14.874;2022-07-06T08:42:03;99118.13;;;23.93;42.77
66547;BME280;53400;50.364;14.874;2022-07-06T08:44:32;99118.28;;;23.88;41.46
66547;BME280;53400;50.364;14.874;2022-07-06T08:47:00;99117.16;;;23.97;41.25
66547;BME280;53400;50.364;14.874;2022-07-06T08:49:29;99122.28;;;23.73;43.56
66547;BME280;53400;50.364;14.874;2022-07-06T08:51:55;99122.78;;;24.01;41.58
66547;BME280;53400;50.364;14.874;2022-07-06T08:54:21;99130.50;;;24.51;42.51
66547;BME280;53400;50.364;14.874;2022-07-06T08:56:48;99124.22;;;24.07;40.06
66547;BME280;53400;50.364;14.874;2022-07-06T08:59:15;99118.13;;;23.84;40.72
66547;BME280;53400;50.364;14.874;2022-07-06T09:01:42;99122.41;;;23.68;39.23
66547;BME280;53400;50.364;14.874;2022-07-06T09:04:12;99117.19;;;23.40;40.81
66547;BME280;53400;50.364;14.874;2022-07-06T09:06:40;99118.91;;;23.76;41.15
66547;BME280;53400;50.364;14.874;2022-07-06T09:09:08;99120.97;;;23.70;41.07
66547;BME280;53400;50.364;14.874;2022-07-06T09:11:35;99122.00;;;23.83;39.50
66547;BME280;53400;50.364;14.874;2022-07-06T09:14:01;99117.16;;;23.80;38.90
66547;BME280;53400;50.364;14.874;2022-07-06T09:16:29;99109.59;;;24.20;39.25
66547;BME280;53400;50.364;14.874;2022-07-06T09:18:56;99113.53;;;24.84;36.85
66547;BME280;53400;50.364;14.874;2022-07-06T09:21:23;99111.47;;;24.63;38.25
66547;BME280;53400;50.364;14.874;2022-07-06T09:23:53;99121.31;;;24.38;42.12
66547;BME280;53400;50.364;14.874;2022-07-06T09:26:19;99111.63;;;24.67;40.88
66547;BME280;53400;50.364;14.874;2022-07-06T09:28:45;99109.69;;;24.59;39.40
66547;BME280;53400;50.364;14.874;2022-07-06T09:31:12;99108.31;;;24.91;38.92
66547;BME280;53400;50.364;14.874;2022-07-06T09:33:38;99109.81;;;24.71;37.61
66547;BME280;53400;50.364;14.874;2022-07-06T09:36:06;99106.75;;;24.81;39.69
66547;BME280;53400;50.364;14.874;2022-07-06T09:38:32;99117.44;;;24.39;37.40
66547;BME280;53400;50.364;14.874;2022-07-06T09:40:58;99106.69;;;24.17;36.92
66547;BME280;53400;50.364;14.874;2022-07-06T09:43:24;99110.50;;;23.64;38.57
66547;BME280;53400;50.364;14.874;2022-07-06T09:45:53;99111.69;;;24.23;38.03
66547;BME280;53400;50.364;14.874;2022-07-06T09:48:20;99111.34;;;24.16;38.94
66547;BME280;53400;50.364;14.874;2022-07-06T09:50:51;99117.78;;;24.38;39.43
66547;BME280;53400;50.364;14.874;2022-07-06T09:53:21;99110.09;;;24.14;39.01
66547;BME280;53400;50.364;14.874;2022-07-06T09:55:51;99102.78;;;24.53;39.09
66547;BME280;53400;50.364;14.874;2022-07-06T09:58:18;99109.50;;;25.20;38.82
66547;BME280;53400;50.364;14.874;2022-07-06T10:00:46;99119.16;;;24.79;35.94
66547;BME280;53400;50.364;14.874;2022-07-06T10:03:12;99112.97;;;24.26;36.08
66547;BME280;53400;50.364;14.874;2022-07-06T10:05:39;99105.06;;;24.16;38.19
66547;BME280;53400;50.364;14.874;2022-07-06T10:08:07;99105.91;;;23.99;38.88
66547;BME280;53400;50.364;14.874;2022-07-06T10:10:37;99117.31;;;24.27;38.19
66547;BME280;53400;50.364;14.874;2022-07-06T10:13:04;99104.56;;;24.31;37.58
66547;BME280;53400;50.364;14.874;2022-07-06T10:15:34;99108.44;;;24.21;38.18
66547;BME280;53400;50.364;14.874;2022-07-06T10:18:02;99107.66;;;24.12;39.10
66547;BME280;53400;50.364;14.874;2022-07-06T10:20:30;99106.03;;;24.46;38.79
66547;BME280;53400;50.364;14.874;2022-07-06T10:22:58;99109.50;;;24.81;39.52
66547;BME280;53400;50.364;14.874;2022-07-06T10:25:25;99102.34;;;24.89;36.18
66547;BME280;53400;50.364;14.874;2022-07-06T10:27:53;99097.00;;;24.45;38.36
66547;BME280;53400;50.364;14.874;2022-07-06T10:30:20;99108.16;;;24.23;37.99
66547;BME280;53400;50.364;14.874;2022-07-06T10:32:48;99109.28;;;23.87;37.92
66547;BME280;53400;50.364;14.874;2022-07-06T10:35:16;99116.41;;;23.48;39.54
66547;BME280;53400;50.364;14.874;2022-07-06T10:37:44;99114.41;;;23.71;41.32
66547;BME280;53400;50.364;14.874;2022-07-06T10:40:13;99117.00;;;23.94;39.78
66547;BME280;53400;50.364;14.874;2022-07-06T10:43:00;99109.25;;;24.31;36.64
66547;BME280;53400;50.364;14.874;2022-07-06T10:45:54;99097.50;;;24.56;34.56
66547;BME280;53400;50.364;14.874;2022-07-06T10:48:21;99107.97;;;24.19;36.29
66547;BME280;53400;50.364;14.874;2022-07-06T10:50:50;99108.63;;;23.81;35.42
66547;BME280;53400;50.364;14.874;2022-07-06T10:53:17;99108.63;;;23.99;37.73
66547;BME280;53400;50.364;14.874;2022-07-06T10:55:45;99106.03;;;24.46;38.31
66547;BME280;53400;50.364;14.874;2022-07-06T10:58:34;99105.91;;;24.08;37.97
66547;BME280;53400;50.364;14.874;2022-07-06T11:01:00;99109.44;;;24.08;37.54
66547;BME280;53400;50.364;14.874;2022-07-06T11:03:34;99104.41;;;24.27;39.09
66547;BME280;53400;50.364;14.874;2022-07-06T11:06:00;99119.78;;;24.84;37.63
66547;BME280;53400;50.364;14.874;2022-07-06T11:08:50;99118.28;;;24.22;38.55
66547;BME280;53400;50.364;14.874;2022-07-06T11:11:18;99108.91;;;24.58;38.10
66547;BME280;53400;50.364;14.874;2022-07-06T11:14:08;99112.25;;;24.72;35.90
66547;BME280;53400;50.364;14.874;2022-07-06T11:16:37;99112.25;;;25.20;36.02
66547;BME280;53400;50.364;14.874;2022-07-06T11:19:08;99112.84;;;24.95;35.18
66547;BME280;53400;50.364;14.874;2022-07-06T11:21:38;99110.53;;;25.06;35.89
66547;BME280;53400;50.364;14.874;2022-07-06T11:24:05;99112.25;;;25.20;35.75
66547;BME280;53400;50.364;14.874;2022-07-06T11:26:33;99107.38;;;25.25;34.78
66547;BME280;53400;50.364;14.874;2022-07-06T11:29:03;99106.84;;;25.02;34.69
66547;BME280;53400;50.364;14.874;2022-07-06T11:31:33;99108.25;;;24.61;35.54
66547;BME280;53400;50.364;14.874;2022-07-06T11:34:00;99100.50;;;24.72;34.91
66547;BME280;53400;50.364;14.874;2022-07-06T11:36:26;99106.50;;;24.65;35.81
66547;BME280;53400;50.364;14.874;2022-07-06T11:38:52;99100.84;;;25.17;35.25
66547;BME280;53400;50.364;14.874;2022-07-06T11:41:18;99105.94;;;25.28;36.17
66547;BME280;53400;50.364;14.874;2022-07-06T11:43:46;99104.34;;;25.27;33.85
66547;BME280;53400;50.364;14.874;2022-07-06T11:46:24;99107.09;;;24.71;35.18
66547;BME280;53400;50.364;14.874;2022-07-06T11:48:53;99112.00;;;24.48;33.74
66547;BME280;53400;50.364;14.874;2022-07-06T11:51:20;99109.25;;;24.57;34.46
66547;BME280;53400;50.364;14.874;2022-07-06T11:53:48;99109.16;;;24.74;34.79
66547;BME280;53400;50.364;14.874;2022-07-06T11:56:15;99102.06;;;24.82;35.95
66547;BME280;53400;50.364;14.874;2022-07-06T11:58:42;99106.59;;;24.86;35.12
66547;BME280;53400;50.364;14.874;2022-07-06T12:01:13;99101.00;;;24.65;36.27
66547;BME280;53400;50.364;14.874;2022-07-06T12:03:39;99107.16;;;24.36;35.60
66547;BME280;53400;50.364;14.874;2022-07-06T12:06:13;99115.53;;;24.31;37.19
66547;BME280;53400;50.364;14.874;2022-07-06T12:08:44;99102.47;;;24.28;36.00
66547;BME280;53400;50.364;14.874;2022-07-06T12:11:14;99103.44;;;24.41;35.33
66547;BME280;53400;50.364;14.874;2022-07-06T12:13:41;99104.28;;;24.97;34.29
66547;BME280;53400;50.364;14.874;2022-07-06T12:16:09;99102.84;;;23.74;37.04
66547;BME280;53400;50.364;14.874;2022-07-06T12:18:36;99106.69;;;23.91;35.39
66547;BME280;53400;50.364;14.874;2022-07-06T12:21:02;99109.44;;;23.99;37.52
66547;BME280;53400;50.364;14.874;2022-07-06T12:23:39;99098.00;;;23.71;36.11
66547;BME280;53400;50.364;14.874;2022-07-06T12:26:06;99095.75;;;23.91;36.29
66547;BME280;53400;50.364;14.874;2022-07-06T12:28:32;99093.16;;;24.38;35.34
66547;BME280;53400;50.364;14.874;2022-07-06T12:30:58;99097.19;;;24.23;35.61
66547;BME280;53400;50.364;14.874;2022-07-06T12:33:24;99097.63;;;24.68;35.31
66547;BME280;53400;50.364;14.874;2022-07-06T12:35:52;99098.19;;;24.83;34.73
66547;BME280;53400;50.364;14.874;2022-07-06T12:38:22;99103.28;;;24.55;35.34
66547;BME280;53400;50.364;14.874;2022-07-06T12:40:49;99110.06;;;24.48;34.32
66547;BME280;53400;50.364;14.874;2022-07-06T12:43:34;99098.63;;;24.38;34.07
66547;BME280;53400;50.364;14.874;2022-07-06T12:46:22;99103.28;;;24.46;34.88
66547;BME280;53400;50.364;14.874;2022-07-06T12:48:51;99091.88;;;24.44;36.31
66547;BME280;53400;50.364;14.874;2022-07-06T12:51:18;99089.94;;;24.36;34.19